createdAt,value
2023-11-05T00:01:40.357Z,14.20
2023-11-05T00:03:42.107Z,14.20
2023-11-05T00:05:43.904Z,14.20
2023-11-05T00:07:45.617Z,14.20
2023-11-05T00:09:47.308Z,14.20
2023-11-05T00:11:49.042Z,14.20
2023-11-05T00:13:50.976Z,14.30
2023-11-05T00:15:55.526Z,14.20
2023-11-05T00:17:58.856Z,14.20
2023-11-05T00:20:00.989Z,14.20
2023-11-05T00:22:02.800Z,14.20
2023-11-05T00:24:04.746Z,14.20
2023-11-05T00:26:06.434Z,14.20
2023-11-05T00:28:08.152Z,14.20
2023-11-05T00:30:10.058Z,14.30
2023-11-05T00:32:12.625Z,14.20
2023-11-05T00:34:14.476Z,14.20
2023-11-05T00:36:16.472Z,14.20
2023-11-05T00:38:18.145Z,14.20
2023-11-05T00:40:19.946Z,14.20
2023-11-05T00:42:21.690Z,14.20
2023-11-05T00:44:23.814Z,14.20
2023-11-05T00:46:25.599Z,14.10
2023-11-05T00:48:27.430Z,14.10
2023-11-05T00:50:29.203Z,14.20
2023-11-05T00:52:31.090Z,14.10
2023-11-05T00:54:33.187Z,14.10
2023-11-05T00:56:34.916Z,14.10
2023-11-05T00:58:36.729Z,14.10
2023-11-05T01:00:38.546Z,14.10
2023-11-05T01:02:40.985Z,14.10
2023-11-05T01:04:42.909Z,14.10
2023-11-05T01:06:44.721Z,14.10
2023-11-05T01:08:46.735Z,14.10
2023-11-05T01:10:48.598Z,14.10
2023-11-05T01:12:51.410Z,14.10
2023-11-05T01:14:55.840Z,14.10
2023-11-05T01:16:57.641Z,14.10
2023-11-05T01:18:59.433Z,14.10
2023-11-05T01:21:01.122Z,14.10
2023-11-05T01:23:02.866Z,14.00
2023-11-05T01:25:05.584Z,14.00
2023-11-05T01:27:07.579Z,14.10
2023-11-05T01:29:10.491Z,14.10
2023-11-05T01:31:12.264Z,14.00
2023-11-05T01:33:14.104Z,14.00
2023-11-05T01:35:15.908Z,14.00
2023-11-05T01:37:17.659Z,14.00
2023-11-05T01:39:20.256Z,14.00
2023-11-05T01:41:21.981Z,14.00
2023-11-05T01:43:23.771Z,14.00
2023-11-05T01:45:25.489Z,14.10
2023-11-05T01:47:27.285Z,14.00
2023-11-05T01:49:29.097Z,14.00
2023-11-05T01:51:31.090Z,14.00
2023-11-05T01:53:32.797Z,14.00
2023-11-05T01:55:34.932Z,14.00
2023-11-05T01:57:36.787Z,14.00
2023-11-05T01:59:38.988Z,13.90
2023-11-05T02:01:42.727Z,14.00
2023-11-05T02:03:44.817Z,14.00
2023-11-05T02:05:46.572Z,14.00
2023-11-05T02:07:48.381Z,14.00
2023-11-05T02:09:50.157Z,14.00
2023-11-05T02:11:51.940Z,13.90
2023-11-05T02:13:55.985Z,14.00
2023-11-05T02:15:57.764Z,14.00
2023-11-05T02:17:59.704Z,14.00
2023-11-05T02:20:01.796Z,14.00
2023-11-05T02:22:12.453Z,14.00
2023-11-05T02:24:15.041Z,14.00
2023-11-05T02:26:16.829Z,13.90
2023-11-05T02:28:18.544Z,14.00
2023-11-05T02:30:23.657Z,14.00
2023-11-05T02:32:26.022Z,14.00
2023-11-05T02:34:27.992Z,14.00
2023-11-05T02:36:29.775Z,14.00
2023-11-05T02:38:31.509Z,14.00
2023-11-05T02:40:33.363Z,14.00
2023-11-05T02:42:35.574Z,14.00
2023-11-05T02:44:37.281Z,14.00
2023-11-05T02:46:39.247Z,14.00
2023-11-05T02:48:41.541Z,14.00
2023-11-05T02:50:44.356Z,14.00
2023-11-05T02:52:46.136Z,14.00
2023-11-05T02:54:47.836Z,14.00
2023-11-05T02:56:49.798Z,14.00
2023-11-05T02:58:52.080Z,14.00
2023-11-05T03:00:53.825Z,14.00
2023-11-05T03:02:55.826Z,14.00
2023-11-05T03:04:58.504Z,14.00
2023-11-05T03:07:01.486Z,14.00
2023-11-05T03:09:03.374Z,13.90
2023-11-05T03:11:05.147Z,13.90
2023-11-05T03:13:10.002Z,13.90
2023-11-05T03:15:11.751Z,14.00
2023-11-05T03:17:13.880Z,13.90
2023-11-05T03:19:15.617Z,13.90
2023-11-05T03:21:17.285Z,13.90
2023-11-05T03:23:19.289Z,13.90
2023-11-05T03:25:21.063Z,13.90
2023-11-05T03:27:22.820Z,13.90
2023-11-05T03:29:24.896Z,13.90
2023-11-05T03:31:27.013Z,13.90
2023-11-05T03:33:28.795Z,13.90
2023-11-05T03:35:30.470Z,13.90
2023-11-05T03:37:32.556Z,13.90
2023-11-05T03:39:34.424Z,13.90
2023-11-05T03:41:36.116Z,13.90
2023-11-05T03:43:38.159Z,13.90
2023-11-05T03:45:40.083Z,13.90
2023-11-05T03:47:41.886Z,13.90
2023-11-05T03:49:43.616Z,13.90
2023-11-05T03:51:46.049Z,14.00
2023-11-05T03:53:47.774Z,13.90
2023-11-05T03:55:49.573Z,13.90
2023-11-05T03:57:51.307Z,13.90
2023-11-05T03:59:52.997Z,13.90
2023-11-05T04:01:54.758Z,13.90
2023-11-05T04:03:56.531Z,13.90
2023-11-05T04:05:58.314Z,13.90
2023-11-05T04:08:00.055Z,13.90
2023-11-05T04:10:01.812Z,13.90
2023-11-05T04:12:04.912Z,13.90
2023-11-05T04:14:06.826Z,13.90
2023-11-05T04:16:09.243Z,13.90
2023-11-05T04:18:11.006Z,13.90
2023-11-05T04:20:12.737Z,14.00
2023-11-05T04:22:14.470Z,13.90
2023-11-05T04:24:16.215Z,13.90
2023-11-05T04:26:17.931Z,13.90
2023-11-05T04:28:19.687Z,13.90
2023-11-05T04:30:21.836Z,13.90
2023-11-05T04:32:24.544Z,13.90
2023-11-05T04:34:28.881Z,13.90
2023-11-05T04:36:30.614Z,13.90
2023-11-05T04:38:32.327Z,13.90
2023-11-05T04:40:34.041Z,13.90
2023-11-05T04:42:35.712Z,14.00
2023-11-05T04:44:38.767Z,14.00
2023-11-05T04:46:41.257Z,14.00
2023-11-05T04:48:43.033Z,14.00
2023-11-05T04:50:44.844Z,14.00
2023-11-05T04:52:46.557Z,14.00
2023-11-05T04:54:49.152Z,14.00
2023-11-05T04:56:51.006Z,14.00
2023-11-05T04:58:52.691Z,14.00
2023-11-05T05:00:55.975Z,14.00
2023-11-05T05:02:57.770Z,14.00
2023-11-05T05:04:59.607Z,14.00
2023-11-05T05:07:01.355Z,14.00
2023-11-05T05:09:04.248Z,14.00
2023-11-05T05:11:06.316Z,14.00
2023-11-05T05:13:08.047Z,14.00
2023-11-05T05:15:09.909Z,14.00
2023-11-05T05:17:12.079Z,13.90
2023-11-05T05:19:13.818Z,14.00
2023-11-05T05:21:15.525Z,13.90
2023-11-05T05:23:17.234Z,13.90
2023-11-05T05:25:19.093Z,13.90
2023-11-05T05:27:20.941Z,13.90
2023-11-05T05:29:22.624Z,13.90
2023-11-05T05:31:24.303Z,13.90
2023-11-05T05:33:26.182Z,13.90
2023-11-05T05:35:27.974Z,13.90
2023-11-05T05:37:29.755Z,13.90
2023-11-05T05:39:31.541Z,14.00
2023-11-05T05:41:33.282Z,13.90
2023-11-05T05:43:34.978Z,14.00
2023-11-05T05:45:36.769Z,14.00
2023-11-05T05:47:38.507Z,14.00
2023-11-05T05:49:40.377Z,14.00
2023-11-05T05:51:42.141Z,14.00
2023-11-05T05:53:46.230Z,14.00
2023-11-05T05:55:48.279Z,14.00
2023-11-05T05:57:50.047Z,14.00
2023-11-05T05:59:53.111Z,14.10
2023-11-05T06:01:55.005Z,14.10
2023-11-05T06:03:57.245Z,14.10
2023-11-05T06:05:58.982Z,14.10
2023-11-05T06:08:00.780Z,14.10
2023-11-05T06:10:03.562Z,14.10
2023-11-05T06:12:05.829Z,14.20
2023-11-05T06:14:07.537Z,14.20
2023-11-05T06:16:09.687Z,14.20
2023-11-05T06:18:11.545Z,14.20
2023-11-05T06:20:13.354Z,14.20
2023-11-05T06:22:15.861Z,14.30
2023-11-05T06:24:17.616Z,14.40
2023-11-05T06:26:19.398Z,14.30
2023-11-05T06:28:21.103Z,14.30
2023-11-05T06:30:22.889Z,14.30
2023-11-05T06:32:24.707Z,14.30
2023-11-05T06:34:26.426Z,14.40
2023-11-05T06:36:28.252Z,14.40
2023-11-05T06:38:30.023Z,14.40
2023-11-05T06:40:31.837Z,14.40
2023-11-05T06:42:33.657Z,14.40
2023-11-05T06:44:35.519Z,14.40
2023-11-05T06:46:37.361Z,14.50
2023-11-05T06:48:39.187Z,14.40
2023-11-05T06:50:41.015Z,14.40
2023-11-05T06:52:42.805Z,14.40
2023-11-05T06:54:44.606Z,14.50
2023-11-05T06:56:46.295Z,14.40
2023-11-05T06:58:49.941Z,14.50
2023-11-05T07:00:51.834Z,14.50
2023-11-05T07:02:53.600Z,14.40
2023-11-05T07:04:55.380Z,14.40
2023-11-05T07:06:57.508Z,14.50
2023-11-05T07:08:59.252Z,14.40
2023-11-05T07:11:01.791Z,14.40
2023-11-05T07:13:03.528Z,14.40
2023-11-05T07:15:07.003Z,14.40
2023-11-05T07:17:10.181Z,14.40
2023-11-05T07:19:11.993Z,14.30
2023-11-05T07:21:16.092Z,14.30
2023-11-05T07:23:18.027Z,14.30
2023-11-05T07:25:19.888Z,14.20
2023-11-05T07:27:22.406Z,14.20
2023-11-05T07:29:24.963Z,14.20
2023-11-05T07:31:26.749Z,14.20
2023-11-05T07:33:28.563Z,14.10
2023-11-05T07:35:30.291Z,14.20
2023-11-05T07:37:32.101Z,14.10
2023-11-05T07:39:34.552Z,14.10
2023-11-05T07:41:36.664Z,14.10
2023-11-05T07:43:40.635Z,14.10
2023-11-05T07:45:43.221Z,14.10
2023-11-05T07:47:45.096Z,14.00
2023-11-05T07:49:46.966Z,14.00
2023-11-05T07:51:48.727Z,14.00
2023-11-05T07:53:50.518Z,14.00
2023-11-05T07:55:52.350Z,14.00
2023-11-05T07:57:54.102Z,14.00
2023-11-05T07:59:55.866Z,14.00
2023-11-05T08:01:59.138Z,14.00
2023-11-05T08:04:01.008Z,14.00
2023-11-05T08:06:03.643Z,14.00
2023-11-05T08:08:05.462Z,14.00
2023-11-05T08:10:07.689Z,14.00
2023-11-05T08:12:09.610Z,13.90
2023-11-05T08:14:12.062Z,13.90
2023-11-05T08:16:14.018Z,14.00
2023-11-05T08:18:16.030Z,13.90
2023-11-05T08:20:19.552Z,13.90
2023-11-05T08:22:21.536Z,13.90
2023-11-05T08:24:25.280Z,13.90
2023-11-05T08:26:29.019Z,13.90
2023-11-05T08:28:31.255Z,13.90
2023-11-05T08:30:33.076Z,13.90
2023-11-05T08:32:34.863Z,13.90
2023-11-05T08:34:37.078Z,13.90
2023-11-05T08:36:38.826Z,13.90
2023-11-05T08:38:40.498Z,13.90
2023-11-05T08:40:42.431Z,13.90
2023-11-05T08:42:44.606Z,13.90
2023-11-05T08:44:46.387Z,13.90
2023-11-05T08:46:49.580Z,13.90
2023-11-05T08:48:51.396Z,13.90
2023-11-05T08:50:53.169Z,13.90
2023-11-05T08:52:54.956Z,13.90
2023-11-05T08:54:58.453Z,13.90
2023-11-05T08:57:00.295Z,13.90
2023-11-05T08:59:02.075Z,13.90
2023-11-05T09:01:04.076Z,13.90
2023-11-05T09:03:08.242Z,13.90
2023-11-05T09:05:11.649Z,13.90
2023-11-05T09:07:13.953Z,13.90
2023-11-05T09:09:16.597Z,13.90
2023-11-05T09:11:18.668Z,13.90
2023-11-05T09:13:20.752Z,13.90
2023-11-05T09:15:23.822Z,13.90
2023-11-05T09:17:25.920Z,14.00
2023-11-05T09:19:28.316Z,13.90
2023-11-05T09:21:30.117Z,13.90
2023-11-05T09:23:32.358Z,14.00
2023-11-05T09:25:34.182Z,14.00
2023-11-05T09:27:37.944Z,14.00
2023-11-05T09:29:39.687Z,14.00
2023-11-05T09:31:44.068Z,14.00
2023-11-05T09:33:45.835Z,14.00
2023-11-05T09:35:47.572Z,14.00
2023-11-05T09:37:49.491Z,14.00
2023-11-05T09:39:51.315Z,14.00
2023-11-05T09:41:53.060Z,14.00
2023-11-05T09:43:54.834Z,14.10
2023-11-05T09:45:57.315Z,14.10
2023-11-05T09:47:59.424Z,14.00
2023-11-05T09:50:02.573Z,14.00
2023-11-05T09:52:07.617Z,14.10
2023-11-05T09:54:09.950Z,14.10
2023-11-05T09:56:11.815Z,14.10
2023-11-05T09:58:14.417Z,14.10
2023-11-05T10:00:17.111Z,14.10
2023-11-05T10:02:18.937Z,14.10
2023-11-05T10:04:20.788Z,14.10
2023-11-05T10:06:22.758Z,14.10
2023-11-05T10:08:25.276Z,14.10
2023-11-05T10:10:27.481Z,14.10
2023-11-05T10:12:30.594Z,14.10
2023-11-05T10:14:32.873Z,14.10
2023-11-05T10:16:36.914Z,14.10
2023-11-05T10:18:40.037Z,14.10
2023-11-05T10:20:52.061Z,14.10
2023-11-05T10:23:03.015Z,14.10
2023-11-05T10:25:07.451Z,14.10
2023-11-05T10:27:09.412Z,14.10
2023-11-05T10:29:13.343Z,14.10
2023-11-05T10:31:15.222Z,14.20
2023-11-05T10:33:17.176Z,14.20
2023-11-05T10:35:19.858Z,14.20
2023-11-05T10:37:23.887Z,14.20
2023-11-05T10:39:25.864Z,14.20
2023-11-05T10:41:28.624Z,14.20
2023-11-05T10:43:30.576Z,14.20
2023-11-05T10:45:32.982Z,14.20
2023-11-05T10:47:36.091Z,14.20
2023-11-05T10:49:39.448Z,14.20
2023-11-05T10:51:41.633Z,14.20
2023-11-05T10:53:44.667Z,14.30
2023-11-05T10:55:46.504Z,14.30
2023-11-05T10:57:49.186Z,14.30
2023-11-05T10:59:51.114Z,14.30
2023-11-05T11:01:55.445Z,14.30
2023-11-05T11:04:05.906Z,14.40
2023-11-05T11:06:08.364Z,14.40
2023-11-05T11:08:10.679Z,14.40
2023-11-05T11:10:13.599Z,14.40
2023-11-05T11:12:34.642Z,14.40
2023-11-05T11:14:38.016Z,14.40
2023-11-05T11:16:42.155Z,14.40
2023-11-05T11:18:45.200Z,14.40
2023-11-05T11:20:53.178Z,14.40
2023-11-05T11:22:55.081Z,14.40
2023-11-05T11:24:56.823Z,14.40
2023-11-05T11:27:02.826Z,14.50
2023-11-05T11:29:06.472Z,14.60
2023-11-05T11:31:08.317Z,14.50
2023-11-05T11:33:10.167Z,14.50
2023-11-05T11:35:12.039Z,14.50
2023-11-05T11:37:14.669Z,14.50
2023-11-05T11:39:16.477Z,14.50
2023-11-05T11:41:19.101Z,14.50
2023-11-05T11:43:21.746Z,14.50
2023-11-05T11:45:23.588Z,14.50
2023-11-05T11:47:26.028Z,14.50
2023-11-05T11:49:30.160Z,14.50
2023-11-05T11:51:35.796Z,14.50
2023-11-05T11:53:40.812Z,14.50
2023-11-05T11:55:42.733Z,14.50
2023-11-05T11:57:44.616Z,14.50
2023-11-05T11:59:48.464Z,14.50
2023-11-05T12:01:50.768Z,14.50
2023-11-05T12:03:52.539Z,14.60
2023-11-05T12:05:54.598Z,14.60
2023-11-05T12:07:56.793Z,14.60
2023-11-05T12:09:58.990Z,14.60
2023-11-05T12:12:00.836Z,14.60
2023-11-05T12:14:04.136Z,14.60
2023-11-05T12:16:07.497Z,14.60
2023-11-05T12:18:09.297Z,14.60
2023-11-05T12:20:14.378Z,14.70
2023-11-05T12:22:18.678Z,14.70
2023-11-05T12:24:21.463Z,14.70
2023-11-05T12:26:23.234Z,14.70
2023-11-05T12:28:25.078Z,14.70
2023-11-05T12:30:29.183Z,14.70
2023-11-05T12:32:32.553Z,14.80
2023-11-05T12:34:34.645Z,14.80
2023-11-05T12:36:36.418Z,14.80
2023-11-05T12:38:38.210Z,14.80
2023-11-05T12:40:40.100Z,14.80
2023-11-05T12:42:42.535Z,14.80
2023-11-05T12:44:44.380Z,14.80
2023-11-05T12:46:46.201Z,14.80
2023-11-05T12:48:50.401Z,14.80
2023-11-05T12:50:52.457Z,14.80
2023-11-05T12:52:54.281Z,14.80
2023-11-05T12:54:55.987Z,14.80
2023-11-05T12:56:57.872Z,14.80
2023-11-05T12:59:01.171Z,14.80
2023-11-05T13:01:03.961Z,14.80
2023-11-05T13:03:06.012Z,14.80
2023-11-05T13:05:09.062Z,14.80
2023-11-05T13:07:10.981Z,14.80
2023-11-05T13:09:16.923Z,14.80
2023-11-05T13:11:22.208Z,14.80
2023-11-05T13:13:25.538Z,14.80
2023-11-05T13:15:31.199Z,14.80
2023-11-05T13:17:34.234Z,14.80
2023-11-05T13:19:36.135Z,14.80
2023-11-05T13:21:37.996Z,14.80
2023-11-05T13:23:39.856Z,14.80
2023-11-05T13:25:42.606Z,14.90
2023-11-05T13:27:44.569Z,14.90
2023-11-05T13:29:47.438Z,14.90
2023-11-05T13:31:49.811Z,14.90
2023-11-05T13:33:51.737Z,14.90
2023-11-05T13:35:54.028Z,14.90
2023-11-05T13:37:56.394Z,14.90
2023-11-05T13:39:58.176Z,14.90
2023-11-05T13:42:00.083Z,14.90
2023-11-05T13:44:05.642Z,14.90
2023-11-05T13:46:07.597Z,14.90
2023-11-05T13:48:09.585Z,14.90
2023-11-05T13:50:12.749Z,14.90
2023-11-05T13:52:15.403Z,14.90
2023-11-05T13:54:17.200Z,14.90
2023-11-05T13:56:19.014Z,14.90
2023-11-05T13:58:20.902Z,14.90
2023-11-05T14:00:23.665Z,14.90
2023-11-05T14:02:26.432Z,14.80
2023-11-05T14:04:28.545Z,14.80
2023-11-05T14:06:30.660Z,14.80
2023-11-05T14:08:32.591Z,14.80
2023-11-05T14:10:35.858Z,14.80
2023-11-05T14:12:37.771Z,14.80
2023-11-05T14:14:39.606Z,14.80
2023-11-05T14:16:41.568Z,14.80
2023-11-05T14:18:43.346Z,14.80
2023-11-05T14:20:45.168Z,14.80
2023-11-05T14:22:47.309Z,14.80
2023-11-05T14:24:49.212Z,14.70
2023-11-05T14:26:51.062Z,14.70
2023-11-05T14:28:52.927Z,14.80
2023-11-05T14:30:55.698Z,14.70
2023-11-05T14:32:57.553Z,14.70
2023-11-05T14:34:59.486Z,14.70
2023-11-05T14:37:01.404Z,14.70
2023-11-05T14:39:06.623Z,14.70
2023-11-05T14:41:09.755Z,14.70
2023-11-05T14:43:11.612Z,14.70
2023-11-05T14:45:22.630Z,14.70
2023-11-05T14:47:29.814Z,14.70
2023-11-05T14:49:31.762Z,14.70
2023-11-05T14:51:33.674Z,14.70
2023-11-05T14:53:36.790Z,14.70
2023-11-05T14:55:39.123Z,14.70
2023-11-05T14:57:40.979Z,14.70
2023-11-05T14:59:42.839Z,14.70
2023-11-05T15:01:44.668Z,14.70
2023-11-05T15:03:47.428Z,14.70
2023-11-05T15:05:49.942Z,14.70
2023-11-05T15:07:52.410Z,14.70
2023-11-05T15:09:54.423Z,14.70
2023-11-05T15:11:56.405Z,14.70
2023-11-05T15:14:00.841Z,14.70
2023-11-05T15:16:04.900Z,14.70
2023-11-05T15:18:06.996Z,14.70
2023-11-05T15:20:11.173Z,14.70
2023-11-05T15:22:14.977Z,14.70
2023-11-05T15:24:16.914Z,14.70
2023-11-05T15:26:22.454Z,14.70
2023-11-05T15:28:29.374Z,14.70
2023-11-05T15:30:31.265Z,14.70
2023-11-05T15:32:35.203Z,14.70
2023-11-05T15:34:37.562Z,14.70
2023-11-05T15:36:40.102Z,14.70
2023-11-05T15:38:42.011Z,14.70
2023-11-05T15:40:44.853Z,14.70
2023-11-05T15:42:51.323Z,14.70
2023-11-05T15:44:53.425Z,14.70
2023-11-05T15:46:56.025Z,14.70
2023-11-05T15:48:59.173Z,14.70
2023-11-05T15:51:02.198Z,14.70
2023-11-05T15:53:04.562Z,14.70
2023-11-05T15:55:09.674Z,14.70
2023-11-05T15:57:12.481Z,14.80
2023-11-05T15:59:17.219Z,14.70
2023-11-05T16:01:19.669Z,14.70
2023-11-05T16:03:21.717Z,14.70
2023-11-05T16:05:23.808Z,14.70
2023-11-05T16:07:26.074Z,14.70
2023-11-05T16:09:31.311Z,14.70
2023-11-05T16:11:36.481Z,14.80
2023-11-05T16:13:39.306Z,14.70
2023-11-05T16:15:41.381Z,14.70
2023-11-05T16:17:43.990Z,14.80
2023-11-05T16:19:47.655Z,14.80
2023-11-05T16:21:51.635Z,14.80
2023-11-05T16:24:02.065Z,14.80
2023-11-05T16:26:07.450Z,14.80
2023-11-05T16:28:10.962Z,14.80
2023-11-05T16:30:13.269Z,14.80
2023-11-05T16:32:15.237Z,14.80
2023-11-05T16:34:17.638Z,14.80
2023-11-05T16:36:20.530Z,14.80
2023-11-05T16:38:22.870Z,14.80
2023-11-05T16:40:24.848Z,14.80
2023-11-05T16:42:26.876Z,14.70
2023-11-05T16:44:29.604Z,14.70
2023-11-05T16:46:31.631Z,14.70
2023-11-05T16:48:33.553Z,14.70
2023-11-05T16:50:35.452Z,14.70
2023-11-05T16:52:37.347Z,14.70
2023-11-05T16:54:39.297Z,14.70
2023-11-05T16:56:50.668Z,14.70
2023-11-05T16:58:52.722Z,14.70
2023-11-05T17:00:54.615Z,14.70
2023-11-05T17:02:57.208Z,14.70
2023-11-05T17:04:59.201Z,14.70
2023-11-05T17:07:02.627Z,14.70
2023-11-05T17:09:06.987Z,14.70
2023-11-05T17:11:09.045Z,14.70
2023-11-05T17:13:10.948Z,14.70
2023-11-05T17:15:12.909Z,14.70
2023-11-05T17:17:14.787Z,14.80
2023-11-05T17:19:16.618Z,14.70
2023-11-05T17:21:20.375Z,14.70
2023-11-05T17:23:23.523Z,14.70
2023-11-05T17:25:25.317Z,14.70
2023-11-05T17:27:27.211Z,14.70
2023-11-05T17:29:29.127Z,14.70
2023-11-05T17:31:31.559Z,14.70
2023-11-05T17:33:35.458Z,14.70
2023-11-05T17:35:40.126Z,14.70
2023-11-05T17:37:43.075Z,14.70
2023-11-05T17:39:45.014Z,14.70
2023-11-05T17:41:46.997Z,14.60
2023-11-05T17:43:50.106Z,14.60
2023-11-05T17:45:52.257Z,14.60
2023-11-05T17:47:54.213Z,14.60
2023-11-05T17:49:56.284Z,14.60
2023-11-05T17:51:59.123Z,14.60
2023-11-05T17:54:01.305Z,14.60
2023-11-05T17:56:03.709Z,14.60
2023-11-05T17:58:05.688Z,14.50
2023-11-05T18:00:09.896Z,14.50
2023-11-05T18:02:12.115Z,14.60
2023-11-05T18:04:14.092Z,14.50
2023-11-05T18:06:16.268Z,14.50
2023-11-05T18:08:18.218Z,14.50
2023-11-05T18:10:20.177Z,14.50
2023-11-05T18:12:26.241Z,14.50
2023-11-05T18:14:28.163Z,14.50
2023-11-05T18:16:29.999Z,14.50
2023-11-05T18:18:32.226Z,14.50
2023-11-05T18:20:34.129Z,14.50
2023-11-05T18:22:36.966Z,14.50
2023-11-05T18:24:38.879Z,14.50
2023-11-05T18:26:40.852Z,14.50
2023-11-05T18:28:42.823Z,14.50
2023-11-05T18:30:44.841Z,14.50
2023-11-05T18:32:46.748Z,14.50
2023-11-05T18:34:48.681Z,14.50
2023-11-05T18:36:52.266Z,14.50
2023-11-05T18:38:54.384Z,14.40
2023-11-05T18:40:56.254Z,14.40
2023-11-05T18:42:58.173Z,14.40
2023-11-05T18:45:00.766Z,14.40
2023-11-05T18:47:03.429Z,14.40
2023-11-05T18:49:05.390Z,14.50
2023-11-05T18:51:07.330Z,14.40
2023-11-05T18:53:09.641Z,14.50
2023-11-05T18:55:12.101Z,14.40
2023-11-05T18:57:13.957Z,14.40
2023-11-05T18:59:15.925Z,14.50
2023-11-05T19:01:18.092Z,14.40
2023-11-05T19:03:20.210Z,14.40
2023-11-05T19:05:22.930Z,14.40
2023-11-05T19:07:24.885Z,14.50
2023-11-05T19:09:27.647Z,14.40
2023-11-05T19:11:29.554Z,14.40
2023-11-05T19:13:31.416Z,14.50
2023-11-05T19:15:33.278Z,14.40
2023-11-05T19:17:35.359Z,14.40
2023-11-05T19:19:37.406Z,14.40
2023-11-05T19:21:39.259Z,14.40
2023-11-05T19:23:41.119Z,14.40
2023-11-05T19:25:43.002Z,14.40
2023-11-05T19:27:44.988Z,14.40
2023-11-05T19:29:46.959Z,14.40
2023-11-05T19:31:49.196Z,14.40
2023-11-05T19:33:51.300Z,14.40
2023-11-05T19:35:53.914Z,14.40
2023-11-05T19:37:55.935Z,14.40
2023-11-05T19:39:57.856Z,14.40
2023-11-05T19:41:59.768Z,14.40
2023-11-05T19:44:01.714Z,14.40
2023-11-05T19:46:03.806Z,14.40
2023-11-05T19:48:05.911Z,14.40
2023-11-05T19:50:08.423Z,14.50
2023-11-05T19:52:10.376Z,14.40
2023-11-05T19:54:13.049Z,14.40
2023-11-05T19:56:25.498Z,14.40
2023-11-05T19:58:28.435Z,14.40
2023-11-05T20:00:30.641Z,14.40
2023-11-05T20:02:32.796Z,14.40
2023-11-05T20:04:34.874Z,14.30
2023-11-05T20:06:36.973Z,14.30
2023-11-05T20:08:41.938Z,14.30
2023-11-05T20:10:54.805Z,14.30
2023-11-05T20:12:57.044Z,14.30
2023-11-05T20:15:02.156Z,14.30
2023-11-05T20:17:07.194Z,14.30
2023-11-05T20:19:10.356Z,14.30
2023-11-05T20:21:13.926Z,14.30
2023-11-05T20:23:16.154Z,14.20
2023-11-05T20:25:18.329Z,14.20
2023-11-05T20:27:20.124Z,14.20
2023-11-05T20:29:25.100Z,14.20
2023-11-05T20:31:27.139Z,14.20
2023-11-05T20:33:29.145Z,14.20
2023-11-05T20:35:31.154Z,14.20
2023-11-05T20:37:36.635Z,14.20
2023-11-05T20:39:38.606Z,14.20
2023-11-05T20:41:40.589Z,14.20
2023-11-05T20:43:42.532Z,14.20
2023-11-05T20:45:44.575Z,14.20
2023-11-05T20:47:46.685Z,14.20
2023-11-05T20:49:48.815Z,14.20
2023-11-05T20:51:52.398Z,14.20
2023-11-05T20:53:54.221Z,14.20
2023-11-05T20:55:56.565Z,14.20
2023-11-05T20:58:00.895Z,14.20
2023-11-05T21:00:05.489Z,14.20
2023-11-05T21:02:07.530Z,14.20
2023-11-05T21:04:09.404Z,14.20
2023-11-05T21:06:16.609Z,14.20
2023-11-05T21:08:18.631Z,14.20
2023-11-05T21:10:20.608Z,14.20
2023-11-05T21:12:22.427Z,14.20
2023-11-05T21:14:24.283Z,14.20
2023-11-05T21:16:26.118Z,14.30
2023-11-05T21:18:28.254Z,14.30
2023-11-05T21:20:30.333Z,14.30
2023-11-05T21:22:32.282Z,14.30
2023-11-05T21:24:34.153Z,14.20
2023-11-05T21:26:36.637Z,14.30
2023-11-05T21:28:38.497Z,14.20
2023-11-05T21:30:40.403Z,14.30
2023-11-05T21:32:42.923Z,14.20
2023-11-05T21:34:44.880Z,14.30
2023-11-05T21:36:46.888Z,14.20
2023-11-05T21:38:48.697Z,14.20
2023-11-05T21:40:50.924Z,14.20
2023-11-05T21:42:52.827Z,14.20
2023-11-05T21:44:54.699Z,14.30
2023-11-05T21:46:56.643Z,14.20
2023-11-05T21:48:58.716Z,14.30
2023-11-05T21:51:00.610Z,14.20
2023-11-05T21:53:02.505Z,14.20
2023-11-05T21:55:06.217Z,14.20
2023-11-05T21:57:08.015Z,14.20
2023-11-05T21:59:09.819Z,14.20
2023-11-05T22:01:11.645Z,14.20
2023-11-05T22:03:13.791Z,14.20
2023-11-05T22:05:15.750Z,14.20
2023-11-05T22:07:17.891Z,14.20
2023-11-05T22:09:19.727Z,14.20
2023-11-05T22:11:21.524Z,14.20
2023-11-05T22:13:23.450Z,14.20
2023-11-05T22:15:25.188Z,14.20
2023-11-05T22:17:26.971Z,14.20
2023-11-05T22:19:29.378Z,14.20
2023-11-05T22:21:31.116Z,14.20
2023-11-05T22:23:33.468Z,14.20
2023-11-05T22:25:35.190Z,14.20
2023-11-05T22:27:36.967Z,14.20
2023-11-05T22:29:38.765Z,14.20
2023-11-05T22:31:41.142Z,14.20
2023-11-05T22:33:43.197Z,14.20
2023-11-05T22:35:45.777Z,14.20
2023-11-05T22:37:47.645Z,14.30
2023-11-05T22:39:49.400Z,14.30
2023-11-05T22:41:51.182Z,14.30
2023-11-05T22:43:53.032Z,14.30
2023-11-05T22:45:55.480Z,14.30
2023-11-05T22:47:57.251Z,14.30
2023-11-05T22:49:59.079Z,14.30
2023-11-05T22:52:00.846Z,14.30
2023-11-05T22:54:02.658Z,14.30
2023-11-05T22:56:04.631Z,14.30
2023-11-05T22:58:06.392Z,14.30
2023-11-05T23:00:09.430Z,14.30
2023-11-05T23:02:11.204Z,14.30
2023-11-05T23:04:12.952Z,14.20
2023-11-05T23:06:14.656Z,14.20
2023-11-05T23:08:16.855Z,14.30
2023-11-05T23:10:18.647Z,14.20
2023-11-05T23:12:20.383Z,14.20
2023-11-05T23:14:22.210Z,14.20
2023-11-05T23:16:24.270Z,14.20
2023-11-05T23:18:26.190Z,14.20
2023-11-05T23:20:28.038Z,14.20
2023-11-05T23:22:29.847Z,14.20
2023-11-05T23:24:31.565Z,14.20
2023-11-05T23:26:33.315Z,14.20
2023-11-05T23:28:35.128Z,14.20
2023-11-05T23:30:36.943Z,14.20
2023-11-05T23:32:38.783Z,14.20
2023-11-05T23:34:41.188Z,14.20
2023-11-05T23:36:42.999Z,14.20
2023-11-05T23:38:45.708Z,14.20
2023-11-05T23:40:47.479Z,14.20
2023-11-05T23:42:50.242Z,14.20
2023-11-05T23:44:52.113Z,14.20
2023-11-05T23:46:54.079Z,14.20
2023-11-05T23:48:55.975Z,14.20
2023-11-05T23:50:57.798Z,14.10
2023-11-05T23:52:59.574Z,14.20
2023-11-05T23:55:01.436Z,14.20
2023-11-05T23:57:03.218Z,14.10
2023-11-05T23:59:05.198Z,14.20
